Terminal Aerodrome Forecast
Issued by NWS

Home | Current Version | Previous Version | Text Only | Print | Product List | Glossary On
Versions: 1 2 3 4 5 6 7 8 9 10 11 12 13 14 15 16 17 18 19 20 21 22 23 24 25 26
000
FTUS45 KBOI 220520
TAFJER
TAF
KJER 220520Z 2206/2306 23012KT P6SM FEW100
     FM221800 23007KT P6SM -SHSN BKN040
     FM230000 24008KT P6SM SCT040 BKN080
      AMD NOT SKED=

USA.gov is the U.S. government's official web portal to all federal, state and local government web resources and services.